Terminal Aerodrome Forecast
Issued by NWS

Home | Current Version | Previous Version | Text Only | Print | Product List | Glossary On
Versions: 1 2 3 4 5 6 7 8 9 10 11 12 13 14 15 16 17 18 19 20 21 22
000
FTUS44 KLZK 191100
TAFLLQ
TAF
KLLQ 191120Z 1912/2012 VRB04KT P6SM SCT008 OVC040
      TEMPO 1912/1916 BKN025
     FM191700 05005KT P6SM -RA OVC015
     FM200200 03003KT P6SM SCT008 OVC012 PROB30 2006/2012 5SM -DZ BR
      OVC008=

USA.gov is the U.S. government's official web portal to all federal, state and local government web resources and services.